createdAt,value
2017-05-12T00:00:59.270Z,3.20
2017-05-12T00:03:28.317Z,2.88
2017-05-12T00:05:56.604Z,2.92
2017-05-12T00:08:24.934Z,2.92
2017-05-12T00:10:53.963Z,2.77
2017-05-12T00:13:22.267Z,3.65
2017-05-12T00:15:50.582Z,3.50
2017-05-12T00:18:19.614Z,3.70
2017-05-12T00:20:47.943Z,3.87
2017-05-12T00:23:16.237Z,3.70
2017-05-12T00:25:45.271Z,3.70
2017-05-12T00:28:13.578Z,3.75
2017-05-12T00:30:41.873Z,3.63
2017-05-12T00:33:10.191Z,3.30
2017-05-12T00:35:38.477Z,4.07
2017-05-12T00:38:06.809Z,3.50
2017-05-12T00:40:35.119Z,3.25
2017-05-12T00:43:03.406Z,3.43
2017-05-12T00:45:31.735Z,3.73
2017-05-12T00:48:00.038Z,3.73
2017-05-12T00:50:29.063Z,3.25
2017-05-12T00:52:57.377Z,3.47
2017-05-12T00:55:25.671Z,3.43
2017-05-12T00:57:54.004Z,3.68
2017-05-12T01:00:22.295Z,3.57
2017-05-12T01:02:50.579Z,3.43
2017-05-12T01:05:18.883Z,3.48
2017-05-12T01:07:47.177Z,3.10
2017-05-12T01:10:16.237Z,3.92
2017-05-12T01:12:44.524Z,3.80
2017-05-12T01:15:12.810Z,3.30
2017-05-12T01:17:41.123Z,3.25
2017-05-12T01:20:09.410Z,3.32
2017-05-12T01:22:37.734Z,3.58
2017-05-12T01:25:06.031Z,3.77
2017-05-12T01:27:34.323Z,3.30
2017-05-12T01:30:03.379Z,3.40
2017-05-12T01:32:31.670Z,3.83
2017-05-12T01:35:00.004Z,3.97
2017-05-12T01:37:28.298Z,3.68
2017-05-12T01:39:56.592Z,2.80
2017-05-12T01:42:24.902Z,3.40
2017-05-12T01:44:53.927Z,3.80
2017-05-12T01:47:22.262Z,3.65
2017-05-12T01:49:50.553Z,3.03
2017-05-12T01:52:19.585Z,3.27
2017-05-12T01:54:47.898Z,3.68
2017-05-12T01:57:16.187Z,3.07
2017-05-12T01:59:44.503Z,3.58
2017-05-12T02:02:12.799Z,3.23
2017-05-12T02:04:41.087Z,3.48
2017-05-12T02:07:09.411Z,3.38
2017-05-12T02:09:37.703Z,3.42
2017-05-12T02:12:06.770Z,3.50
2017-05-12T02:14:35.065Z,3.70
2017-05-12T02:17:03.357Z,4.13
2017-05-12T02:19:32.425Z,3.58
2017-05-12T02:22:00.718Z,4.40
2017-05-12T02:24:29.049Z,3.93
2017-05-12T02:26:57.330Z,4.20
2017-05-12T02:29:25.614Z,3.93
2017-05-12T02:31:53.918Z,3.97
2017-05-12T02:34:22.209Z,3.47
2017-05-12T02:36:50.538Z,4.30
2017-05-12T02:39:18.831Z,4.32
2017-05-12T02:41:47.118Z,3.37
2017-05-12T02:44:15.431Z,4.07
2017-05-12T02:46:44.463Z,3.90
2017-05-12T02:49:12.800Z,3.88
2017-05-12T02:51:41.836Z,4.20
2017-05-12T02:54:10.118Z,4.65
2017-05-12T02:56:38.426Z,3.22
2017-05-12T02:59:06.715Z,4.08
2017-05-12T03:01:35.038Z,3.75
2017-05-12T03:04:03.357Z,3.90
2017-05-12T03:06:31.642Z,3.57
2017-05-12T03:08:59.948Z,4.20
2017-05-12T03:11:28.974Z,4.25
2017-05-12T03:13:57.302Z,4.30
2017-05-12T03:16:25.592Z,4.50
2017-05-12T03:18:53.895Z,4.10
2017-05-12T03:21:22.211Z,4.02
2017-05-12T03:23:50.501Z,4.30
2017-05-12T03:26:18.815Z,4.17
2017-05-12T03:28:47.855Z,4.07
2017-05-12T03:31:16.143Z,3.73
2017-05-12T03:33:44.457Z,4.17
2017-05-12T03:36:12.747Z,4.13
2017-05-12T03:38:41.811Z,4.42
2017-05-12T03:41:10.098Z,3.82
2017-05-12T03:43:38.386Z,4.00
2017-05-12T03:46:07.450Z,3.53
2017-05-12T03:48:35.738Z,3.58
2017-05-12T03:51:04.062Z,3.92
2017-05-12T03:53:33.091Z,3.63
2017-05-12T03:56:01.378Z,3.97
2017-05-12T03:58:29.689Z,4.62
2017-05-12T04:00:57.982Z,4.30
2017-05-12T04:03:27.037Z,3.83
2017-05-12T04:05:55.327Z,4.10
2017-05-12T04:08:23.618Z,4.48
2017-05-12T04:10:51.934Z,4.50
2017-05-12T04:13:20.228Z,4.33
2017-05-12T04:15:48.582Z,3.45
2017-05-12T04:18:16.871Z,3.47
2017-05-12T04:20:45.164Z,4.22
2017-05-12T04:23:13.470Z,3.68
2017-05-12T04:25:41.763Z,3.70
2017-05-12T04:28:10.095Z,4.15
2017-05-12T04:30:38.381Z,4.47
2017-05-12T04:33:06.666Z,4.27
2017-05-12T04:35:34.983Z,3.70
2017-05-12T04:38:03.310Z,4.07
2017-05-12T04:40:31.619Z,4.03
2017-05-12T04:42:59.925Z,4.08
2017-05-12T04:45:28.950Z,3.82
2017-05-12T04:47:57.260Z,3.40
2017-05-12T04:50:25.553Z,3.60
2017-05-12T04:52:53.886Z,3.27
2017-05-12T04:55:22.173Z,3.42
2017-05-12T04:57:50.457Z,3.12
2017-05-12T05:00:18.773Z,3.55
2017-05-12T05:02:47.063Z,3.27
2017-05-12T05:05:15.394Z,3.65
2017-05-12T05:07:43.679Z,3.83
2017-05-12T05:10:11.971Z,3.50
2017-05-12T05:12:40.277Z,3.45
2017-05-12T05:15:08.568Z,3.03
2017-05-12T05:17:37.640Z,2.87
2017-05-12T05:20:05.926Z,3.25
2017-05-12T05:22:34.217Z,3.08
2017-05-12T05:25:03.264Z,3.17
2017-05-12T05:27:31.558Z,3.27
2017-05-12T05:29:59.885Z,3.23
2017-05-12T05:32:28.186Z,3.12
2017-05-12T05:34:58.388Z,3.38
2017-05-12T05:37:26.711Z,3.27
2017-05-12T05:39:55.018Z,3.25
2017-05-12T05:42:23.306Z,3.23
2017-05-12T05:44:52.375Z,3.50
2017-05-12T05:47:20.669Z,3.23
2017-05-12T05:49:48.955Z,3.82
2017-05-12T05:52:18.034Z,2.77
2017-05-12T05:54:46.638Z,3.50
2017-05-12T05:57:15.672Z,3.20
2017-05-12T05:59:44.822Z,3.72
2017-05-12T06:02:13.119Z,3.20
2017-05-12T06:04:42.153Z,3.70
2017-05-12T06:07:10.486Z,3.80
2017-05-12T06:09:39.513Z,3.87
2017-05-12T06:12:07.811Z,4.47
2017-05-12T06:14:36.142Z,4.13
2017-05-12T06:17:05.174Z,4.20
2017-05-12T06:19:33.498Z,3.53
2017-05-12T06:22:01.816Z,3.53
2017-05-12T06:24:30.107Z,3.75
2017-05-12T06:26:58.396Z,3.98
2017-05-12T06:29:28.486Z,3.70
2017-05-12T06:31:56.770Z,3.50
2017-05-12T06:34:25.078Z,3.10
2017-05-12T06:36:53.402Z,3.27
2017-05-12T06:39:22.433Z,3.20
2017-05-12T06:41:50.722Z,3.23
2017-05-12T06:44:19.049Z,3.53
2017-05-12T06:46:48.078Z,3.77
2017-05-12T06:49:16.358Z,3.30
2017-05-12T06:51:44.683Z,3.90
2017-05-12T06:54:12.979Z,3.07
2017-05-12T06:56:42.013Z,3.20
2017-05-12T06:59:10.328Z,2.95
2017-05-12T07:01:38.618Z,3.67
2017-05-12T07:04:06.915Z,2.90
2017-05-12T07:06:35.977Z,3.52
2017-05-12T07:09:04.265Z,2.95
2017-05-12T07:11:32.554Z,3.40
2017-05-12T07:14:00.890Z,3.45
2017-05-12T07:16:29.179Z,4.18
2017-05-12T07:18:57.475Z,3.60
2017-05-12T07:21:25.801Z,3.60
2017-05-12T07:23:54.084Z,3.75
2017-05-12T07:26:22.383Z,3.73
2017-05-12T07:28:50.702Z,3.60
2017-05-12T07:31:18.998Z,4.18
2017-05-12T07:33:48.026Z,3.65
2017-05-12T07:36:16.398Z,3.43
2017-05-12T07:38:44.674Z,3.60
2017-05-12T07:41:12.966Z,4.47
2017-05-12T07:43:41.298Z,3.57
2017-05-12T07:46:10.331Z,3.22
2017-05-12T07:48:38.632Z,4.27
2017-05-12T07:51:06.970Z,3.85
2017-05-12T07:53:35.265Z,3.45
2017-05-12T07:56:03.554Z,3.48
2017-05-12T07:58:31.877Z,3.62
2017-05-12T08:01:00.174Z,3.42
2017-05-12T08:03:28.478Z,3.63
2017-05-12T08:05:56.815Z,4.90
2017-05-12T08:08:25.114Z,6.96
2017-05-12T08:10:54.150Z,3.06
2017-05-12T08:13:22.479Z,3.10
2017-05-12T08:15:51.509Z,3.46
2017-05-12T08:18:19.802Z,3.38
2017-05-12T08:20:48.141Z,2.46
2017-05-12T08:23:17.179Z,2.66
2017-05-12T08:25:45.472Z,1.80
2017-05-12T08:28:13.796Z,1.90
2017-05-12T08:30:42.835Z,1.96
2017-05-12T08:33:11.130Z,2.12
2017-05-12T08:35:39.466Z,1.94
2017-05-12T08:38:07.763Z,2.08
2017-05-12T08:40:36.060Z,1.92
2017-05-12T08:43:04.395Z,1.84
2017-05-12T08:45:32.682Z,1.92
2017-05-12T08:48:00.975Z,1.76
2017-05-12T08:50:29.302Z,1.64
2017-05-12T08:52:58.350Z,1.96
2017-05-12T08:55:26.751Z,1.66
2017-05-12T08:57:55.079Z,1.72
2017-05-12T09:00:23.383Z,1.60
2017-05-12T09:02:51.670Z,1.66
2017-05-12T09:05:20.019Z,1.40
2017-05-12T09:07:48.336Z,1.42
2017-05-12T09:10:16.631Z,1.48
2017-05-12T09:12:44.958Z,1.70
2017-05-12T09:15:13.256Z,1.80
2017-05-12T09:17:41.555Z,1.74
2017-05-12T09:20:09.899Z,1.60
2017-05-12T09:22:38.186Z,1.22
2017-05-12T09:25:06.482Z,1.26
2017-05-12T09:27:34.825Z,1.48
2017-05-12T09:30:03.117Z,1.38
2017-05-12T09:32:31.414Z,1.32
2017-05-12T09:34:59.751Z,1.60
2017-05-12T09:37:28.064Z,1.64
2017-05-12T09:39:56.362Z,1.84
2017-05-12T09:42:24.699Z,1.28
2017-05-12T09:44:52.996Z,1.00
2017-05-12T09:47:21.286Z,1.38
2017-05-12T09:49:49.614Z,1.44
2017-05-12T09:52:17.919Z,1.16
2017-05-12T09:54:46.218Z,1.26
2017-05-12T09:57:14.539Z,1.34
2017-05-12T09:59:43.570Z,0.88
2017-05-12T10:02:11.881Z,0.98
2017-05-12T10:04:40.179Z,1.08
2017-05-12T10:07:09.285Z,1.10
2017-05-12T10:09:37.585Z,1.00
2017-05-12T10:12:05.902Z,1.24
2017-05-12T10:14:34.222Z,0.88
2017-05-12T10:17:03.342Z,0.98
2017-05-12T10:19:31.631Z,1.20
2017-05-12T10:21:59.927Z,1.20
2017-05-12T10:24:28.260Z,0.92
2017-05-12T10:26:57.731Z,0.80
2017-05-12T10:29:26.017Z,1.06
2017-05-12T10:31:54.337Z,1.22
2017-05-12T10:34:23.407Z,1.28
2017-05-12T10:36:51.723Z,1.04
2017-05-12T10:39:20.021Z,0.92
2017-05-12T10:41:48.331Z,1.02
2017-05-12T10:44:16.648Z,1.00
2017-05-12T10:46:44.978Z,0.80
2017-05-12T10:49:13.358Z,1.00
2017-05-12T10:51:41.651Z,0.90
2017-05-12T10:54:09.942Z,1.22
2017-05-12T10:56:38.274Z,0.90
2017-05-12T10:59:06.574Z,1.00
2017-05-12T11:01:34.859Z,1.20
2017-05-12T11:04:03.226Z,1.44
2017-05-12T11:06:31.510Z,1.10
2017-05-12T11:08:59.801Z,1.10
2017-05-12T11:11:28.131Z,1.54
2017-05-12T11:13:56.418Z,1.08
2017-05-12T11:16:25.167Z,1.14
2017-05-12T11:18:54.242Z,1.44
2017-05-12T11:21:22.536Z,1.16
2017-05-12T11:23:51.581Z,1.30
2017-05-12T11:26:19.912Z,1.06
2017-05-12T11:28:48.959Z,1.16
2017-05-12T11:31:17.261Z,1.04
2017-05-12T11:33:45.594Z,1.10
2017-05-12T11:36:13.897Z,1.40
2017-05-12T11:38:42.187Z,1.30
2017-05-12T11:41:10.505Z,1.00
2017-05-12T11:43:40.422Z,1.68
2017-05-12T11:46:09.474Z,1.00
2017-05-12T11:48:37.785Z,1.38
2017-05-12T11:51:06.102Z,0.90
2017-05-12T11:53:34.398Z,1.08
2017-05-12T11:56:02.733Z,1.32
2017-05-12T11:58:31.769Z,1.20
2017-05-12T12:01:00.058Z,1.00
2017-05-12T12:03:28.387Z,1.03
2017-05-12T12:05:57.421Z,1.12
2017-05-12T12:08:25.709Z,1.07
2017-05-12T12:10:54.043Z,1.10
2017-05-12T12:13:23.082Z,0.80
2017-05-12T12:15:51.381Z,0.70
2017-05-12T12:18:19.711Z,0.72
2017-05-12T12:20:48.919Z,1.00
2017-05-12T12:23:17.222Z,0.80
2017-05-12T12:25:45.582Z,1.08
2017-05-12T12:28:13.881Z,1.10
2017-05-12T12:30:42.181Z,1.06
2017-05-12T12:33:10.498Z,0.80
2017-05-12T12:35:38.795Z,0.94
2017-05-12T12:38:07.135Z,0.90
2017-05-12T12:40:36.166Z,0.86
2017-05-12T12:43:04.461Z,1.00
2017-05-12T12:45:32.806Z,1.10
2017-05-12T12:48:01.842Z,1.30
2017-05-12T12:50:30.138Z,0.90
2017-05-12T12:52:58.490Z,1.30
2017-05-12T12:55:26.781Z,1.20
2017-05-12T12:57:55.072Z,1.30
2017-05-12T13:00:23.382Z,1.14
2017-05-12T13:02:52.412Z,1.12
2017-05-12T13:05:20.726Z,1.14
2017-05-12T13:07:49.029Z,1.50
2017-05-12T13:10:18.086Z,1.10
2017-05-12T13:12:46.437Z,1.02
2017-05-12T13:15:14.731Z,1.46
2017-05-12T13:17:43.044Z,1.28
2017-05-12T13:20:11.361Z,1.26
2017-05-12T13:22:39.678Z,1.46
2017-05-12T13:25:07.983Z,1.20
2017-05-12T13:27:36.340Z,1.14
2017-05-12T13:30:04.674Z,2.38
2017-05-12T13:32:33.002Z,1.80
2017-05-12T13:35:01.326Z,1.02
2017-05-12T13:37:30.364Z,1.10
2017-05-12T13:39:58.884Z,1.32
2017-05-12T13:42:27.214Z,1.30
2017-05-12T13:44:55.506Z,1.08
2017-05-12T13:47:23.828Z,0.90
2017-05-12T13:49:52.877Z,0.90
2017-05-12T13:52:21.171Z,0.70
2017-05-12T13:54:49.505Z,1.36
2017-05-12T13:57:17.826Z,1.02
2017-05-12T13:59:46.142Z,1.00
2017-05-12T14:02:15.220Z,1.28
2017-05-12T14:04:43.519Z,1.00
2017-05-12T14:07:12.558Z,0.90
2017-05-12T14:09:40.899Z,1.30
2017-05-12T14:12:09.934Z,1.20
2017-05-12T14:14:38.237Z,4.12
2017-05-12T14:17:06.570Z,0.90
2017-05-12T14:19:35.298Z,0.78
2017-05-12T14:22:03.595Z,1.00
2017-05-12T14:24:31.922Z,0.96
2017-05-12T14:27:00.247Z,0.96
2017-05-12T14:29:28.541Z,1.18
2017-05-12T14:31:56.859Z,1.60
2017-05-12T14:34:25.150Z,0.78
2017-05-12T14:36:53.479Z,1.30
2017-05-12T14:39:21.770Z,0.90
2017-05-12T14:41:50.793Z,0.82
2017-05-12T14:44:19.125Z,1.10
2017-05-12T14:46:48.176Z,1.10
2017-05-12T14:49:16.493Z,0.80
2017-05-12T14:51:44.800Z,0.90
2017-05-12T14:54:13.862Z,0.90
2017-05-12T14:56:42.158Z,0.82
2017-05-12T14:59:10.458Z,0.98
2017-05-12T15:01:39.533Z,0.80
2017-05-12T15:04:08.572Z,0.80
2017-05-12T15:06:36.869Z,0.80
2017-05-12T15:09:05.287Z,0.90
2017-05-12T15:11:33.585Z,1.22
2017-05-12T15:14:01.882Z,0.98
2017-05-12T15:16:30.218Z,1.00
2017-05-12T15:18:59.287Z,1.02
2017-05-12T15:21:27.596Z,1.02
2017-05-12T15:23:56.679Z,0.80
2017-05-12T15:26:24.975Z,1.00
2017-05-12T15:28:54.004Z,0.80
2017-05-12T15:31:22.322Z,0.90
2017-05-12T15:33:50.618Z,0.92
2017-05-12T15:36:18.909Z,0.80
2017-05-12T15:38:47.979Z,1.08
2017-05-12T15:41:16.272Z,0.90
2017-05-12T15:43:44.564Z,0.98
2017-05-12T15:46:13.727Z,0.90
2017-05-12T15:48:42.013Z,0.90
2017-05-12T15:51:10.305Z,0.80
2017-05-12T15:53:38.649Z,1.00
2017-05-12T15:56:06.939Z,1.12
2017-05-12T15:58:35.223Z,0.80
2017-05-12T16:01:03.555Z,0.90
2017-05-12T16:03:31.850Z,1.34
2017-05-12T16:06:00.165Z,1.04
2017-05-12T16:08:28.555Z,1.02
2017-05-12T16:10:57.610Z,1.06
2017-05-12T16:13:26.020Z,0.84
2017-05-12T16:15:54.361Z,0.90
2017-05-12T16:18:23.533Z,0.88
2017-05-12T16:20:51.862Z,2.06
2017-05-12T16:23:20.276Z,0.72
2017-05-12T16:25:49.330Z,0.80
2017-05-12T16:28:18.071Z,0.90
2017-05-12T16:30:47.166Z,0.90
2017-05-12T16:33:17.129Z,0.72
2017-05-12T16:35:45.457Z,0.86
2017-05-12T16:38:14.547Z,0.90
2017-05-12T16:40:42.843Z,0.90
2017-05-12T16:43:11.909Z,0.80
2017-05-12T16:45:41.004Z,0.90
2017-05-12T16:48:09.298Z,0.86
2017-05-12T16:50:37.601Z,0.90
2017-05-12T16:53:05.918Z,0.70
2017-05-12T16:55:34.290Z,0.90
2017-05-12T16:58:02.587Z,0.76
2017-05-12T17:00:30.901Z,0.90
2017-05-12T17:02:59.949Z,1.12
2017-05-12T17:05:28.240Z,0.90
2017-05-12T17:07:56.531Z,1.04
2017-05-12T17:10:24.872Z,0.90
2017-05-12T17:12:53.174Z,1.00
2017-05-12T17:15:21.478Z,1.02
2017-05-12T17:17:49.815Z,0.94
2017-05-12T17:20:18.105Z,0.92
2017-05-12T17:22:46.418Z,0.90
2017-05-12T17:25:15.491Z,0.86
2017-05-12T17:27:43.795Z,1.00
2017-05-12T17:30:12.089Z,1.00
2017-05-12T17:32:40.433Z,1.18
2017-05-12T17:35:08.730Z,0.96
2017-05-12T17:37:37.798Z,1.36
2017-05-12T17:40:06.132Z,0.98
2017-05-12T17:42:34.431Z,1.25
2017-05-12T17:45:02.722Z,0.90
2017-05-12T17:47:31.062Z,0.83
2017-05-12T17:49:59.383Z,1.10
2017-05-12T17:52:27.691Z,0.98
2017-05-12T17:54:56.027Z,1.20
2017-05-12T17:57:24.323Z,1.48
2017-05-12T17:59:52.633Z,1.37
2017-05-12T18:02:21.709Z,1.28
2017-05-12T18:04:50.466Z,1.40
2017-05-12T18:07:18.781Z,1.58
2017-05-12T18:09:47.138Z,1.53
2017-05-12T18:12:15.445Z,1.23
2017-05-12T18:14:43.742Z,1.60
2017-05-12T18:17:12.819Z,1.18
2017-05-12T18:19:41.114Z,1.27
2017-05-12T18:22:10.159Z,1.48
2017-05-12T18:24:38.505Z,1.07
2017-05-12T18:27:06.810Z,1.22
2017-05-12T18:29:35.111Z,1.30
2017-05-12T18:32:03.446Z,1.47
2017-05-12T18:34:31.738Z,1.75
2017-05-12T18:37:00.030Z,1.50
2017-05-12T18:39:28.358Z,1.38
2017-05-12T18:41:57.407Z,1.57
2017-05-12T18:44:25.698Z,1.62
2017-05-12T18:46:54.026Z,1.50
2017-05-12T18:49:22.325Z,1.38
2017-05-12T18:51:50.629Z,1.48
2017-05-12T18:54:18.965Z,1.97
2017-05-12T18:56:47.997Z,1.72
2017-05-12T18:59:16.295Z,1.53
2017-05-12T19:01:44.653Z,2.02
2017-05-12T19:04:12.943Z,2.47
2017-05-12T19:06:41.249Z,2.97
2017-05-12T19:09:09.616Z,3.52
2017-05-12T19:11:37.929Z,2.98
2017-05-12T19:14:06.225Z,2.58
2017-05-12T19:16:34.598Z,3.00
2017-05-12T19:19:02.913Z,3.10
2017-05-12T19:21:31.257Z,4.02
2017-05-12T19:24:00.538Z,3.15
2017-05-12T19:26:29.627Z,3.13
2017-05-12T19:28:58.686Z,4.10
2017-05-12T19:31:27.068Z,5.48
2017-05-12T19:33:55.394Z,6.30
2017-05-12T19:36:24.452Z,6.00
2017-05-12T19:38:52.840Z,5.42
2017-05-12T19:41:21.223Z,4.53
2017-05-12T19:43:49.611Z,3.75
2017-05-12T19:46:18.001Z,3.63
2017-05-12T19:48:47.119Z,6.20
2017-05-12T19:51:15.537Z,6.77
2017-05-12T19:53:43.991Z,14.08
2017-05-12T19:56:12.336Z,6.28
2017-05-12T19:58:41.407Z,3.45
2017-05-12T20:01:09.744Z,3.62
2017-05-12T20:03:38.051Z,2.95
2017-05-12T20:06:06.355Z,3.05
2017-05-12T20:08:34.682Z,2.83
2017-05-12T20:11:02.989Z,3.73
2017-05-12T20:13:31.280Z,3.02
2017-05-12T20:15:59.590Z,3.28
2017-05-12T20:18:27.898Z,3.58
2017-05-12T20:20:56.200Z,3.22
2017-05-12T20:23:24.518Z,2.72
2017-05-12T20:25:52.820Z,3.25
2017-05-12T20:28:21.118Z,3.10
2017-05-12T20:30:49.441Z,2.85
2017-05-12T20:33:17.738Z,3.05
2017-05-12T20:35:46.038Z,2.77
2017-05-12T20:38:15.092Z,2.70
2017-05-12T20:40:43.471Z,2.53
2017-05-12T20:43:11.775Z,3.03
2017-05-12T20:45:40.081Z,4.48
2017-05-12T20:48:08.401Z,2.45
2017-05-12T20:50:36.695Z,2.40
2017-05-12T20:53:05.032Z,2.60
2017-05-12T20:55:33.327Z,2.98
2017-05-12T20:58:01.614Z,2.77
2017-05-12T21:00:29.933Z,2.43
2017-05-12T21:02:58.978Z,3.07
2017-05-12T21:05:27.311Z,2.55
2017-05-12T21:07:56.347Z,2.98
2017-05-12T21:10:24.642Z,3.55
2017-05-12T21:12:52.964Z,2.75
2017-05-12T21:15:21.254Z,2.55
2017-05-12T21:17:49.566Z,2.80
2017-05-12T21:20:17.863Z,3.32
2017-05-12T21:22:46.208Z,2.90
2017-05-12T21:25:14.501Z,2.75
2017-05-12T21:27:42.790Z,2.77
2017-05-12T21:30:11.134Z,2.63
2017-05-12T21:32:39.423Z,2.92
2017-05-12T21:35:07.722Z,2.50
2017-05-12T21:37:36.062Z,3.07
2017-05-12T21:40:04.370Z,2.68
2017-05-12T21:42:32.660Z,2.50
2017-05-12T21:45:00.998Z,2.53
2017-05-12T21:47:29.287Z,2.72
2017-05-12T21:49:57.595Z,2.42
2017-05-12T21:52:25.911Z,2.42
2017-05-12T21:54:54.946Z,2.77
2017-05-12T21:57:23.246Z,2.73
2017-05-12T21:59:51.582Z,2.30
2017-05-12T22:02:20.605Z,2.63
2017-05-12T22:04:48.902Z,2.72
2017-05-12T22:07:17.234Z,2.73
2017-05-12T22:09:46.269Z,2.75
2017-05-12T22:12:14.554Z,2.52
2017-05-12T22:14:42.894Z,2.30
2017-05-12T22:17:11.195Z,2.72
2017-05-12T22:19:39.486Z,3.02
2017-05-12T22:22:07.825Z,2.48
2017-05-12T22:24:36.118Z,3.10
2017-05-12T22:27:04.415Z,2.57
2017-05-12T22:29:32.750Z,2.65
2017-05-12T22:32:01.792Z,2.80
2017-05-12T22:34:30.091Z,3.13
2017-05-12T22:36:58.444Z,2.88
2017-05-12T22:39:26.750Z,2.20
2017-05-12T22:41:55.051Z,3.22
2017-05-12T22:44:24.137Z,3.22
2017-05-12T22:46:52.451Z,2.70
2017-05-12T22:49:20.750Z,2.50
2017-05-12T22:51:49.085Z,2.98
2017-05-12T22:54:18.132Z,2.50
2017-05-12T22:56:46.426Z,3.38
2017-05-12T22:59:14.762Z,3.02
2017-05-12T23:01:43.072Z,5.88
2017-05-12T23:04:11.363Z,2.77
2017-05-12T23:06:39.695Z,2.47
2017-05-12T23:09:07.991Z,2.65
2017-05-12T23:11:36.285Z,2.83
2017-05-12T23:14:04.838Z,2.85
2017-05-12T23:16:33.176Z,2.63
2017-05-12T23:19:01.466Z,2.35
2017-05-12T23:21:29.794Z,2.75
2017-05-12T23:23:58.300Z,2.70
2017-05-12T23:26:26.590Z,3.00
2017-05-12T23:28:54.925Z,2.92
2017-05-12T23:31:23.268Z,3.18
2017-05-12T23:33:51.558Z,3.45
2017-05-12T23:36:19.892Z,2.85
2017-05-12T23:38:48.179Z,3.25
2017-05-12T23:41:16.470Z,2.67
2017-05-12T23:43:44.823Z,2.82
2017-05-12T23:46:13.157Z,3.37
2017-05-12T23:48:41.462Z,2.53
2017-05-12T23:51:09.785Z,2.88
2017-05-12T23:53:38.082Z,2.20
2017-05-12T23:56:07.118Z,2.80
2017-05-12T23:58:35.458Z,2.95
